sensor_id;sensor_type;location;lat;lon;timestamp;P1;durP1;ratioP1;P2;durP2;ratioP2
80508;SDS011;69838;52.602;13.434;2024-01-16T16:11:15;9.73;;;4.85;;
80508;SDS011;69838;52.602;13.434;2024-01-16T16:12:03;9.00;;;5.25;;
80508;SDS011;69838;52.602;13.434;2024-01-16T16:12:49;13.27;;;5.25;;
80508;SDS011;69838;52.602;13.434;2024-01-16T16:13:34;11.43;;;7.07;;
80508;SDS011;69838;52.602;13.434;2024-01-16T16:15:17;14.52;;;6.93;;
80508;SDS011;69838;52.602;13.434;2024-01-16T16:16:03;13.65;;;7.63;;
80508;SDS011;69838;52.602;13.434;2024-01-16T16:16:49;12.20;;;6.65;;
80508;SDS011;69838;52.602;13.434;2024-01-16T16:17:36;12.90;;;6.65;;
80508;SDS011;69838;52.602;13.434;2024-01-16T16:18:22;12.35;;;6.70;;
80508;SDS011;69838;52.602;13.434;2024-01-16T16:20:07;15.03;;;6.10;;
80508;SDS011;69838;52.602;13.434;2024-01-16T16:20:55;13.68;;;9.80;;
80508;SDS011;69838;52.602;13.434;2024-01-16T16:21:40;13.38;;;7.63;;
80508;SDS011;69838;52.602;13.434;2024-01-16T16:22:26;14.30;;;8.15;;
80508;SDS011;69838;52.602;13.434;2024-01-16T16:23:12;13.95;;;7.80;;
80508;SDS011;69838;52.602;13.434;2024-01-16T16:23:58;13.32;;;6.78;;
80508;SDS011;69838;52.602;13.434;2024-01-16T16:24:44;14.73;;;7.53;;
80508;SDS011;69838;52.602;13.434;2024-01-16T16:25:30;15.32;;;10.95;;
80508;SDS011;69838;52.602;13.434;2024-01-16T16:26:16;15.75;;;9.27;;
80508;SDS011;69838;52.602;13.434;2024-01-16T16:27:21;14.57;;;9.27;;
80508;SDS011;69838;52.602;13.434;2024-01-16T16:28:09;13.55;;;8.57;;
80508;SDS011;69838;52.602;13.434;2024-01-16T16:28:57;15.15;;;9.05;;
80508;SDS011;69838;52.602;13.434;2024-01-16T16:29:43;13.52;;;8.23;;
80508;SDS011;69838;52.602;13.434;2024-01-16T16:30:29;12.25;;;6.80;;
80508;SDS011;69838;52.602;13.434;2024-01-16T16:31:15;15.55;;;8.45;;
80508;SDS011;69838;52.602;13.434;2024-01-16T16:32:01;14.25;;;8.50;;
80508;SDS011;69838;52.602;13.434;2024-01-16T16:32:47;14.95;;;9.50;;
80508;SDS011;69838;52.602;13.434;2024-01-16T16:33:33;14.35;;;8.05;;
80508;SDS011;69838;52.602;13.434;2024-01-16T16:34:18;15.20;;;9.75;;
80508;SDS011;69838;52.602;13.434;2024-01-16T16:35:04;14.80;;;10.07;;
80508;SDS011;69838;52.602;13.434;2024-01-16T16:35:51;18.05;;;9.27;;
80508;SDS011;69838;52.602;13.434;2024-01-16T16:36:38;15.88;;;9.20;;
80508;SDS011;69838;52.602;13.434;2024-01-16T16:37:24;15.57;;;7.75;;
80508;SDS011;69838;52.602;13.434;2024-01-16T16:38:10;15.40;;;10.23;;
80508;SDS011;69838;52.602;13.434;2024-01-16T16:38:56;17.10;;;8.00;;
80508;SDS011;69838;52.602;13.434;2024-01-16T16:39:43;16.08;;;9.48;;
80508;SDS011;69838;52.602;13.434;2024-01-16T16:40:29;12.05;;;8.35;;
80508;SDS011;69838;52.602;13.434;2024-01-16T16:41:14;19.02;;;9.80;;
80508;SDS011;69838;52.602;13.434;2024-01-16T16:42:01;16.05;;;7.57;;
80508;SDS011;69838;52.602;13.434;2024-01-16T16:42:46;13.82;;;7.95;;
80508;SDS011;69838;52.602;13.434;2024-01-16T16:43:32;13.05;;;9.18;;
80508;SDS011;69838;52.602;13.434;2024-01-16T16:44:19;13.95;;;7.40;;
80508;SDS011;69838;52.602;13.434;2024-01-16T16:45:05;15.73;;;8.55;;
80508;SDS011;69838;52.602;13.434;2024-01-16T16:45:52;16.08;;;8.05;;
80508;SDS011;69838;52.602;13.434;2024-01-16T16:46:38;14.93;;;8.10;;
80508;SDS011;69838;52.602;13.434;2024-01-16T16:47:23;14.05;;;8.68;;
80508;SDS011;69838;52.602;13.434;2024-01-16T16:48:10;13.05;;;9.18;;
80508;SDS011;69838;52.602;13.434;2024-01-16T16:48:55;18.17;;;8.93;;
80508;SDS011;69838;52.602;13.434;2024-01-16T16:49:41;13.95;;;7.75;;
80508;SDS011;69838;52.602;13.434;2024-01-16T16:50:29;13.82;;;8.43;;
80508;SDS011;69838;52.602;13.434;2024-01-16T16:51:16;14.57;;;7.85;;
80508;SDS011;69838;52.602;13.434;2024-01-16T16:52:02;13.70;;;8.05;;
80508;SDS011;69838;52.602;13.434;2024-01-16T16:52:49;11.90;;;7.38;;
80508;SDS011;69838;52.602;13.434;2024-01-16T16:53:35;14.55;;;8.02;;
80508;SDS011;69838;52.602;13.434;2024-01-16T16:54:20;15.88;;;8.10;;
80508;SDS011;69838;52.602;13.434;2024-01-16T16:55:07;12.73;;;7.07;;
80508;SDS011;69838;52.602;13.434;2024-01-16T16:55:52;15.05;;;8.52;;
80508;SDS011;69838;52.602;13.434;2024-01-16T16:56:38;15.93;;;8.65;;
80508;SDS011;69838;52.602;13.434;2024-01-16T16:57:26;15.25;;;8.93;;
80508;SDS011;69838;52.602;13.434;2024-01-16T16:58:11;13.30;;;8.25;;
80508;SDS011;69838;52.602;13.434;2024-01-16T16:58:57;13.68;;;7.90;;
80508;SDS011;69838;52.602;13.434;2024-01-16T16:59:44;13.30;;;9.00;;
80508;SDS011;69838;52.602;13.434;2024-01-16T17:00:30;14.07;;;8.07;;
80508;SDS011;69838;52.602;13.434;2024-01-16T17:01:17;15.40;;;8.45;;
80508;SDS011;69838;52.602;13.434;2024-01-16T17:02:04;14.95;;;8.38;;
80508;SDS011;69838;52.602;13.434;2024-01-16T17:02:50;12.73;;;8.70;;
80508;SDS011;69838;52.602;13.434;2024-01-16T17:03:35;15.73;;;10.02;;
80508;SDS011;69838;52.602;13.434;2024-01-16T17:04:22;16.45;;;7.40;;
80508;SDS011;69838;52.602;13.434;2024-01-16T17:05:08;16.20;;;9.68;;
80508;SDS011;69838;52.602;13.434;2024-01-16T17:05:55;16.13;;;9.13;;
80508;SDS011;69838;52.602;13.434;2024-01-16T17:06:43;15.15;;;8.63;;
80508;SDS011;69838;52.602;13.434;2024-01-16T17:07:29;17.50;;;9.88;;
80508;SDS011;69838;52.602;13.434;2024-01-16T17:08:15;16.25;;;8.57;;
80508;SDS011;69838;52.602;13.434;2024-01-16T17:09:01;18.55;;;9.25;;
80508;SDS011;69838;52.602;13.434;2024-01-16T17:09:46;16.88;;;10.23;;
80508;SDS011;69838;52.602;13.434;2024-01-16T17:10:33;14.23;;;8.02;;
80508;SDS011;69838;52.602;13.434;2024-01-16T17:11:18;14.70;;;9.45;;
80508;SDS011;69838;52.602;13.434;2024-01-16T17:12:04;15.98;;;8.25;;
80508;SDS011;69838;52.602;13.434;2024-01-16T17:12:51;14.70;;;8.95;;
80508;SDS011;69838;52.602;13.434;2024-01-16T17:13:38;18.27;;;9.80;;
80508;SDS011;69838;52.602;13.434;2024-01-16T17:14:24;16.17;;;10.15;;
80508;SDS011;69838;52.602;13.434;2024-01-16T17:15:10;16.95;;;8.90;;
80508;SDS011;69838;52.602;13.434;2024-01-16T17:15:56;16.13;;;8.98;;
80508;SDS011;69838;52.602;13.434;2024-01-16T17:16:41;17.13;;;9.38;;
80508;SDS011;69838;52.602;13.434;2024-01-16T17:17:28;15.05;;;9.15;;
80508;SDS011;69838;52.602;13.434;2024-01-16T17:18:17;16.60;;;9.00;;
80508;SDS011;69838;52.602;13.434;2024-01-16T17:19:03;18.05;;;9.90;;
80508;SDS011;69838;52.602;13.434;2024-01-16T17:19:49;14.00;;;8.73;;
80508;SDS011;69838;52.602;13.434;2024-01-16T17:20:35;16.63;;;8.88;;
80508;SDS011;69838;52.602;13.434;2024-01-16T17:21:22;14.05;;;8.40;;
80508;SDS011;69838;52.602;13.434;2024-01-16T17:22:08;13.93;;;9.02;;
80508;SDS011;69838;52.602;13.434;2024-01-16T17:22:54;17.85;;;8.85;;
80508;SDS011;69838;52.602;13.434;2024-01-16T17:23:39;17.63;;;9.07;;
80508;SDS011;69838;52.602;13.434;2024-01-16T17:24:25;14.00;;;8.40;;
80508;SDS011;69838;52.602;13.434;2024-01-16T17:25:11;14.40;;;7.57;;
80508;SDS011;69838;52.602;13.434;2024-01-16T17:25:57;15.82;;;8.75;;
80508;SDS011;69838;52.602;13.434;2024-01-16T17:26:44;17.83;;;9.70;;
80508;SDS011;69838;52.602;13.434;2024-01-16T17:27:30;14.20;;;8.57;;
80508;SDS011;69838;52.602;13.434;2024-01-16T17:28:16;14.77;;;8.70;;
80508;SDS011;69838;52.602;13.434;2024-01-16T17:29:04;16.52;;;8.27;;
80508;SDS011;69838;52.602;13.434;2024-01-16T17:29:50;15.80;;;9.20;;
80508;SDS011;69838;52.602;13.434;2024-01-16T17:30:35;18.13;;;9.25;;
80508;SDS011;69838;52.602;13.434;2024-01-16T17:31:21;16.10;;;8.15;;
80508;SDS011;69838;52.602;13.434;2024-01-16T17:32:07;16.15;;;8.27;;
80508;SDS011;69838;52.602;13.434;2024-01-16T17:32:53;15.95;;;8.38;;
80508;SDS011;69838;52.602;13.434;2024-01-16T17:33:39;18.05;;;9.90;;
80508;SDS011;69838;52.602;13.434;2024-01-16T17:34:24;15.20;;;8.77;;
80508;SDS011;69838;52.602;13.434;2024-01-16T17:35:11;16.40;;;9.63;;
80508;SDS011;69838;52.602;13.434;2024-01-16T17:35:58;16.40;;;9.38;;
80508;SDS011;69838;52.602;13.434;2024-01-16T17:36:47;17.23;;;9.55;;
80508;SDS011;69838;52.602;13.434;2024-01-16T17:37:32;18.40;;;9.65;;
80508;SDS011;69838;52.602;13.434;2024-01-16T17:38:18;16.67;;;7.97;;
80508;SDS011;69838;52.602;13.434;2024-01-16T17:39:05;17.20;;;8.80;;
80508;SDS011;69838;52.602;13.434;2024-01-16T17:39:54;15.98;;;8.70;;
80508;SDS011;69838;52.602;13.434;2024-01-16T17:40:40;18.90;;;8.68;;
80508;SDS011;69838;52.602;13.434;2024-01-16T17:41:26;17.35;;;10.00;;
80508;SDS011;69838;52.602;13.434;2024-01-16T17:42:13;15.48;;;9.98;;
80508;SDS011;69838;52.602;13.434;2024-01-16T17:43:00;14.70;;;8.70;;
80508;SDS011;69838;52.602;13.434;2024-01-16T17:43:45;15.15;;;8.05;;
80508;SDS011;69838;52.602;13.434;2024-01-16T17:44:31;16.70;;;9.48;;
80508;SDS011;69838;52.602;13.434;2024-01-16T17:45:22;16.08;;;8.45;;
80508;SDS011;69838;52.602;13.434;2024-01-16T17:46:08;14.50;;;8.27;;
80508;SDS011;69838;52.602;13.434;2024-01-16T17:46:53;16.50;;;8.45;;
80508;SDS011;69838;52.602;13.434;2024-01-16T17:47:40;16.52;;;7.75;;
80508;SDS011;69838;52.602;13.434;2024-01-16T17:48:25;17.67;;;7.72;;
80508;SDS011;69838;52.602;13.434;2024-01-16T17:49:11;19.10;;;8.45;;
80508;SDS011;69838;52.602;13.434;2024-01-16T17:49:58;17.00;;;9.77;;
80508;SDS011;69838;52.602;13.434;2024-01-16T17:50:43;14.85;;;10.10;;
80508;SDS011;69838;52.602;13.434;2024-01-16T17:51:29;14.90;;;8.10;;
80508;SDS011;69838;52.602;13.434;2024-01-16T17:52:17;15.65;;;8.40;;
80508;SDS011;69838;52.602;13.434;2024-01-16T17:53:05;15.10;;;9.10;;
80508;SDS011;69838;52.602;13.434;2024-01-16T17:53:50;13.80;;;8.68;;
80508;SDS011;69838;52.602;13.434;2024-01-16T17:54:38;14.52;;;8.45;;
80508;SDS011;69838;52.602;13.434;2024-01-16T17:55:24;14.63;;;7.43;;
80508;SDS011;69838;52.602;13.434;2024-01-16T17:56:14;14.18;;;8.20;;
80508;SDS011;69838;52.602;13.434;2024-01-16T17:57:01;15.07;;;6.95;;
80508;SDS011;69838;52.602;13.434;2024-01-16T17:57:47;15.88;;;8.45;;
80508;SDS011;69838;52.602;13.434;2024-01-16T17:58:32;14.23;;;8.63;;
80508;SDS011;69838;52.602;13.434;2024-01-16T17:59:19;14.80;;;7.88;;
80508;SDS011;69838;52.602;13.434;2024-01-16T18:00:06;14.15;;;7.80;;
80508;SDS011;69838;52.602;13.434;2024-01-16T18:00:54;19.40;;;8.30;;
80508;SDS011;69838;52.602;13.434;2024-01-16T18:01:40;14.52;;;7.65;;
80508;SDS011;69838;52.602;13.434;2024-01-16T18:02:26;12.32;;;7.40;;
80508;SDS011;69838;52.602;13.434;2024-01-16T18:03:12;13.32;;;7.55;;
80508;SDS011;69838;52.602;13.434;2024-01-16T18:04:00;15.73;;;7.72;;
80508;SDS011;69838;52.602;13.434;2024-01-16T18:04:45;13.18;;;8.20;;
80508;SDS011;69838;52.602;13.434;2024-01-16T18:05:31;13.88;;;7.47;;
80508;SDS011;69838;52.602;13.434;2024-01-16T18:06:17;14.23;;;8.02;;
80508;SDS011;69838;52.602;13.434;2024-01-16T18:07:05;15.43;;;6.95;;
80508;SDS011;69838;52.602;13.434;2024-01-16T18:07:52;14.68;;;8.07;;
80508;SDS011;69838;52.602;13.434;2024-01-16T18:08:39;15.57;;;8.52;;
80508;SDS011;69838;52.602;13.434;2024-01-16T18:09:24;11.68;;;7.35;;
80508;SDS011;69838;52.602;13.434;2024-01-16T18:10:13;16.23;;;8.52;;
80508;SDS011;69838;52.602;13.434;2024-01-16T18:11:00;15.38;;;7.65;;
80508;SDS011;69838;52.602;13.434;2024-01-16T18:11:51;14.77;;;8.43;;
80508;SDS011;69838;52.602;13.434;2024-01-16T18:12:37;15.85;;;8.25;;
80508;SDS011;69838;52.602;13.434;2024-01-16T18:13:24;14.75;;;7.57;;
80508;SDS011;69838;52.602;13.434;2024-01-16T18:14:09;16.00;;;8.15;;
80508;SDS011;69838;52.602;13.434;2024-01-16T18:14:58;14.32;;;7.72;;
80508;SDS011;69838;52.602;13.434;2024-01-16T18:15:45;10.38;;;6.40;;
80508;SDS011;69838;52.602;13.434;2024-01-16T18:16:30;12.32;;;7.63;;
80508;SDS011;69838;52.602;13.434;2024-01-16T18:17:16;13.48;;;8.60;;
80508;SDS011;69838;52.602;13.434;2024-01-16T18:18:03;12.52;;;8.35;;
80508;SDS011;69838;52.602;13.434;2024-01-16T18:18:52;12.25;;;7.10;;
80508;SDS011;69838;52.602;13.434;2024-01-16T18:19:38;11.23;;;7.25;;
80508;SDS011;69838;52.602;13.434;2024-01-16T18:20:24;11.50;;;7.30;;
80508;SDS011;69838;52.602;13.434;2024-01-16T18:21:13;15.60;;;7.35;;
80508;SDS011;69838;52.602;13.434;2024-01-16T18:22:00;12.57;;;7.47;;
80508;SDS011;69838;52.602;13.434;2024-01-16T18:22:47;11.95;;;6.53;;
80508;SDS011;69838;52.602;13.434;2024-01-16T18:23:34;12.05;;;7.20;;
80508;SDS011;69838;52.602;13.434;2024-01-16T18:24:20;13.45;;;7.70;;
80508;SDS011;69838;52.602;13.434;2024-01-16T18:25:06;12.98;;;6.88;;
80508;SDS011;69838;52.602;13.434;2024-01-16T18:25:53;12.13;;;6.97;;
80508;SDS011;69838;52.602;13.434;2024-01-16T18:26:40;13.80;;;7.55;;
80508;SDS011;69838;52.602;13.434;2024-01-16T18:27:25;13.45;;;7.50;;
80508;SDS011;69838;52.602;13.434;2024-01-16T18:28:10;12.32;;;7.03;;
80508;SDS011;69838;52.602;13.434;2024-01-16T18:28:57;11.02;;;6.90;;
80508;SDS011;69838;52.602;13.434;2024-01-16T18:29:43;14.25;;;7.60;;
80508;SDS011;69838;52.602;13.434;2024-01-16T18:30:29;13.18;;;7.65;;
80508;SDS011;69838;52.602;13.434;2024-01-16T18:31:18;13.85;;;7.90;;
80508;SDS011;69838;52.602;13.434;2024-01-16T18:32:03;12.00;;;7.03;;
80508;SDS011;69838;52.602;13.434;2024-01-16T18:32:52;16.60;;;8.32;;
80508;SDS011;69838;52.602;13.434;2024-01-16T18:33:39;13.85;;;7.88;;
80508;SDS011;69838;52.602;13.434;2024-01-16T18:34:25;12.25;;;7.00;;
80508;SDS011;69838;52.602;13.434;2024-01-16T18:35:11;13.18;;;7.28;;
80508;SDS011;69838;52.602;13.434;2024-01-16T18:36:01;12.85;;;7.38;;
80508;SDS011;69838;52.602;13.434;2024-01-16T18:36:48;12.85;;;7.63;;
80508;SDS011;69838;52.602;13.434;2024-01-16T18:37:34;15.07;;;8.07;;
80508;SDS011;69838;52.602;13.434;2024-01-16T18:38:21;13.95;;;8.68;;
80508;SDS011;69838;52.602;13.434;2024-01-16T18:39:09;15.02;;;8.23;;
80508;SDS011;69838;52.602;13.434;2024-01-16T18:39:57;11.88;;;7.65;;
80508;SDS011;69838;52.602;13.434;2024-01-16T18:40:43;15.23;;;8.57;;
80508;SDS011;69838;52.602;13.434;2024-01-16T18:41:29;15.00;;;7.53;;
80508;SDS011;69838;52.602;13.434;2024-01-16T18:42:15;15.98;;;8.10;;
80508;SDS011;69838;52.602;13.434;2024-01-16T18:43:00;16.27;;;8.23;;
80508;SDS011;69838;52.602;13.434;2024-01-16T18:43:47;16.42;;;7.25;;
80508;SDS011;69838;52.602;13.434;2024-01-16T18:44:33;13.15;;;8.48;;
80508;SDS011;69838;52.602;13.434;2024-01-16T18:45:18;13.70;;;7.80;;
80508;SDS011;69838;52.602;13.434;2024-01-16T18:46:05;14.20;;;7.82;;
80508;SDS011;69838;52.602;13.434;2024-01-16T18:46:51;14.02;;;7.30;;
80508;SDS011;69838;52.602;13.434;2024-01-16T18:47:37;13.20;;;7.40;;
80508;SDS011;69838;52.602;13.434;2024-01-16T18:48:24;13.10;;;8.73;;
80508;SDS011;69838;52.602;13.434;2024-01-16T18:49:09;12.32;;;7.85;;
80508;SDS011;69838;52.602;13.434;2024-01-16T18:49:58;13.50;;;7.55;;
80508;SDS011;69838;52.602;13.434;2024-01-16T18:50:44;13.75;;;8.32;;
80508;SDS011;69838;52.602;13.434;2024-01-16T18:51:30;15.98;;;8.95;;
80508;SDS011;69838;52.602;13.434;2024-01-16T18:52:16;13.15;;;7.00;;
80508;SDS011;69838;52.602;13.434;2024-01-16T18:53:03;13.30;;;7.72;;
80508;SDS011;69838;52.602;13.434;2024-01-16T18:53:48;13.63;;;8.45;;
80508;SDS011;69838;52.602;13.434;2024-01-16T18:54:36;15.18;;;7.82;;
80508;SDS011;69838;52.602;13.434;2024-01-16T18:55:22;14.75;;;7.80;;
80508;SDS011;69838;52.602;13.434;2024-01-16T18:56:07;16.30;;;9.13;;
80508;SDS011;69838;52.602;13.434;2024-01-16T18:56:58;13.07;;;8.18;;
80508;SDS011;69838;52.602;13.434;2024-01-16T18:57:43;16.63;;;8.85;;
80508;SDS011;69838;52.602;13.434;2024-01-16T18:58:30;14.95;;;8.02;;
80508;SDS011;69838;52.602;13.434;2024-01-16T18:59:16;15.38;;;8.93;;
80508;SDS011;69838;52.602;13.434;2024-01-16T19:00:01;14.60;;;9.18;;
80508;SDS011;69838;52.602;13.434;2024-01-16T19:00:49;14.68;;;9.57;;
80508;SDS011;69838;52.602;13.434;2024-01-16T19:01:37;17.52;;;9.70;;
80508;SDS011;69838;52.602;13.434;2024-01-16T19:02:24;15.48;;;9.88;;
80508;SDS011;69838;52.602;13.434;2024-01-16T19:03:10;16.83;;;8.80;;
80508;SDS011;69838;52.602;13.434;2024-01-16T19:03:57;14.80;;;8.95;;
80508;SDS011;69838;52.602;13.434;2024-01-16T19:04:45;14.57;;;8.60;;
80508;SDS011;69838;52.602;13.434;2024-01-16T19:05:32;16.08;;;9.77;;
80508;SDS011;69838;52.602;13.434;2024-01-16T19:06:19;15.52;;;9.20;;
80508;SDS011;69838;52.602;13.434;2024-01-16T19:07:07;14.77;;;9.10;;
80508;SDS011;69838;52.602;13.434;2024-01-16T19:07:57;14.25;;;8.65;;
80508;SDS011;69838;52.602;13.434;2024-01-16T19:08:43;15.50;;;9.95;;
80508;SDS011;69838;52.602;13.434;2024-01-16T19:09:30;14.18;;;9.70;;
80508;SDS011;69838;52.602;13.434;2024-01-16T19:10:23;14.23;;;9.25;;
80508;SDS011;69838;52.602;13.434;2024-01-16T19:11:09;17.13;;;10.50;;
80508;SDS011;69838;52.602;13.434;2024-01-16T19:11:55;14.40;;;9.75;;
80508;SDS011;69838;52.602;13.434;2024-01-16T19:12:41;18.75;;;10.00;;
80508;SDS011;69838;52.602;13.434;2024-01-16T19:13:31;16.52;;;10.65;;
80508;SDS011;69838;52.602;13.434;2024-01-16T19:14:16;15.45;;;10.00;;
80508;SDS011;69838;52.602;13.434;2024-01-16T19:15:02;17.73;;;10.00;;
80508;SDS011;69838;52.602;13.434;2024-01-16T19:15:49;19.35;;;11.52;;
80508;SDS011;69838;52.602;13.434;2024-01-16T19:16:37;18.70;;;9.52;;
80508;SDS011;69838;52.602;13.434;2024-01-16T19:17:23;17.05;;;10.32;;
80508;SDS011;69838;52.602;13.434;2024-01-16T19:18:11;16.48;;;10.45;;
80508;SDS011;69838;52.602;13.434;2024-01-16T19:18:57;17.92;;;11.82;;
80508;SDS011;69838;52.602;13.434;2024-01-16T19:19:43;14.55;;;9.80;;
80508;SDS011;69838;52.602;13.434;2024-01-16T19:20:29;17.70;;;10.48;;
80508;SDS011;69838;52.602;13.434;2024-01-16T19:21:16;15.68;;;9.27;;
80508;SDS011;69838;52.602;13.434;2024-01-16T19:22:01;21.00;;;11.70;;
80508;SDS011;69838;52.602;13.434;2024-01-16T19:22:49;16.90;;;10.82;;
80508;SDS011;69838;52.602;13.434;2024-01-16T19:23:35;19.17;;;10.10;;
80508;SDS011;69838;52.602;13.434;2024-01-16T19:24:21;18.85;;;10.07;;
80508;SDS011;69838;52.602;13.434;2024-01-16T19:25:08;15.80;;;10.43;;
80508;SDS011;69838;52.602;13.434;2024-01-16T19:25:57;17.05;;;10.20;;
80508;SDS011;69838;52.602;13.434;2024-01-16T19:26:43;17.67;;;11.63;;
80508;SDS011;69838;52.602;13.434;2024-01-16T19:27:29;21.05;;;12.35;;
80508;SDS011;69838;52.602;13.434;2024-01-16T19:28:15;22.40;;;11.00;;
80508;SDS011;69838;52.602;13.434;2024-01-16T19:29:00;17.05;;;10.82;;
80508;SDS011;69838;52.602;13.434;2024-01-16T19:29:47;20.55;;;11.85;;
80508;SDS011;69838;52.602;13.434;2024-01-16T19:30:33;18.15;;;11.43;;
80508;SDS011;69838;52.602;13.434;2024-01-16T19:31:18;15.77;;;10.75;;
80508;SDS011;69838;52.602;13.434;2024-01-16T19:32:05;17.20;;;10.00;;
80508;SDS011;69838;52.602;13.434;2024-01-16T19:32:50;19.30;;;10.70;;
80508;SDS011;69838;52.602;13.434;2024-01-16T19:33:36;18.08;;;10.60;;
80508;SDS011;69838;52.602;13.434;2024-01-16T19:34:24;18.10;;;10.40;;
80508;SDS011;69838;52.602;13.434;2024-01-16T19:35:10;19.73;;;10.50;;
80508;SDS011;69838;52.602;13.434;2024-01-16T19:35:57;16.38;;;10.52;;
80508;SDS011;69838;52.602;13.434;2024-01-16T19:36:49;17.35;;;9.60;;
80508;SDS011;69838;52.602;13.434;2024-01-16T19:37:34;17.95;;;10.88;;
80508;SDS011;69838;52.602;13.434;2024-01-16T19:38:21;16.25;;;10.15;;
80508;SDS011;69838;52.602;13.434;2024-01-16T19:39:07;19.35;;;11.38;;
80508;SDS011;69838;52.602;13.434;2024-01-16T19:39:59;19.15;;;10.30;;
80508;SDS011;69838;52.602;13.434;2024-01-16T19:40:45;18.65;;;10.80;;
80508;SDS011;69838;52.602;13.434;2024-01-16T19:41:32;18.88;;;10.15;;
80508;SDS011;69838;52.602;13.434;2024-01-16T19:42:18;22.33;;;14.93;;
80508;SDS011;69838;52.602;13.434;2024-01-16T19:43:05;19.52;;;12.30;;
80508;SDS011;69838;52.602;13.434;2024-01-16T19:43:51;18.60;;;10.85;;
80508;SDS011;69838;52.602;13.434;2024-01-16T19:44:36;22.15;;;11.35;;
80508;SDS011;69838;52.602;13.434;2024-01-16T19:45:23;17.02;;;9.38;;
80508;SDS011;69838;52.602;13.434;2024-01-16T19:46:09;21.90;;;11.77;;
80508;SDS011;69838;52.602;13.434;2024-01-16T19:46:54;18.33;;;10.52;;
80508;SDS011;69838;52.602;13.434;2024-01-16T19:47:41;21.42;;;11.48;;
80508;SDS011;69838;52.602;13.434;2024-01-16T19:48:26;18.55;;;11.85;;
80508;SDS011;69838;52.602;13.434;2024-01-16T19:49:12;21.67;;;11.10;;
80508;SDS011;69838;52.602;13.434;2024-01-16T19:49:58;17.73;;;10.75;;
80508;SDS011;69838;52.602;13.434;2024-01-16T19:50:44;22.08;;;11.93;;
80508;SDS011;69838;52.602;13.434;2024-01-16T19:51:29;20.48;;;12.25;;
80508;SDS011;69838;52.602;13.434;2024-01-16T19:52:19;20.13;;;12.48;;
80508;SDS011;69838;52.602;13.434;2024-01-16T19:53:04;18.85;;;11.73;;
80508;SDS011;69838;52.602;13.434;2024-01-16T19:53:52;19.23;;;11.45;;
80508;SDS011;69838;52.602;13.434;2024-01-16T19:54:38;20.15;;;11.65;;
80508;SDS011;69838;52.602;13.434;2024-01-16T19:55:24;17.83;;;10.10;;
80508;SDS011;69838;52.602;13.434;2024-01-16T19:56:09;18.13;;;10.88;;
80508;SDS011;69838;52.602;13.434;2024-01-16T19:56:57;21.25;;;12.10;;
80508;SDS011;69838;52.602;13.434;2024-01-16T19:57:43;20.98;;;11.50;;
80508;SDS011;69838;52.602;13.434;2024-01-16T19:58:28;19.33;;;11.25;;
80508;SDS011;69838;52.602;13.434;2024-01-16T19:59:15;21.27;;;13.30;;
80508;SDS011;69838;52.602;13.434;2024-01-16T20:00:01;18.33;;;10.80;;
80508;SDS011;69838;52.602;13.434;2024-01-16T20:00:47;22.25;;;12.05;;
80508;SDS011;69838;52.602;13.434;2024-01-16T20:01:33;20.95;;;10.55;;
80508;SDS011;69838;52.602;13.434;2024-01-16T20:02:19;17.92;;;10.82;;
80508;SDS011;69838;52.602;13.434;2024-01-16T20:03:05;21.23;;;12.00;;
80508;SDS011;69838;52.602;13.434;2024-01-16T20:03:52;17.30;;;11.05;;
80508;SDS011;69838;52.602;13.434;2024-01-16T20:04:38;18.48;;;11.73;;
80508;SDS011;69838;52.602;13.434;2024-01-16T20:05:24;20.15;;;10.20;;
80508;SDS011;69838;52.602;13.434;2024-01-16T20:06:10;18.38;;;11.15;;
80508;SDS011;69838;52.602;13.434;2024-01-16T20:06:56;24.58;;;11.68;;
80508;SDS011;69838;52.602;13.434;2024-01-16T20:07:43;18.50;;;10.88;;
80508;SDS011;69838;52.602;13.434;2024-01-16T20:08:29;20.35;;;11.63;;
80508;SDS011;69838;52.602;13.434;2024-01-16T20:09:14;18.63;;;12.50;;
80508;SDS011;69838;52.602;13.434;2024-01-16T20:10:04;19.95;;;12.38;;
80508;SDS011;69838;52.602;13.434;2024-01-16T20:10:52;20.27;;;11.10;;
80508;SDS011;69838;52.602;13.434;2024-01-16T20:11:38;19.70;;;11.82;;
80508;SDS011;69838;52.602;13.434;2024-01-16T20:12:25;18.27;;;11.75;;
80508;SDS011;69838;52.602;13.434;2024-01-16T20:13:11;17.25;;;9.80;;
80508;SDS011;69838;52.602;13.434;2024-01-16T20:13:58;18.30;;;11.82;;
80508;SDS011;69838;52.602;13.434;2024-01-16T20:14:45;19.35;;;12.35;;
80508;SDS011;69838;52.602;13.434;2024-01-16T20:15:30;16.90;;;11.20;;
80508;SDS011;69838;52.602;13.434;2024-01-16T20:16:17;18.35;;;10.23;;
80508;SDS011;69838;52.602;13.434;2024-01-16T20:17:02;21.83;;;11.77;;
80508;SDS011;69838;52.602;13.434;2024-01-16T20:17:48;17.85;;;11.10;;
80508;SDS011;69838;52.602;13.434;2024-01-16T20:18:37;19.55;;;11.13;;
80508;SDS011;69838;52.602;13.434;2024-01-16T20:19:27;18.60;;;10.60;;
80508;SDS011;69838;52.602;13.434;2024-01-16T20:20:15;21.05;;;11.38;;
80508;SDS011;69838;52.602;13.434;2024-01-16T20:21:00;17.50;;;11.07;;
80508;SDS011;69838;52.602;13.434;2024-01-16T20:21:46;19.70;;;10.55;;
80508;SDS011;69838;52.602;13.434;2024-01-16T20:22:32;16.45;;;11.23;;
80508;SDS011;69838;52.602;13.434;2024-01-16T20:23:18;18.40;;;10.05;;
80508;SDS011;69838;52.602;13.434;2024-01-16T20:24:03;16.45;;;10.38;;
80508;SDS011;69838;52.602;13.434;2024-01-16T20:24:52;17.35;;;9.90;;
80508;SDS011;69838;52.602;13.434;2024-01-16T20:25:39;20.63;;;10.95;;
80508;SDS011;69838;52.602;13.434;2024-01-16T20:26:24;18.00;;;10.23;;
80508;SDS011;69838;52.602;13.434;2024-01-16T20:27:12;15.15;;;9.43;;
80508;SDS011;69838;52.602;13.434;2024-01-16T20:28:00;17.20;;;9.52;;
80508;SDS011;69838;52.602;13.434;2024-01-16T20:28:48;20.83;;;10.93;;
80508;SDS011;69838;52.602;13.434;2024-01-16T20:29:35;16.23;;;9.98;;
80508;SDS011;69838;52.602;13.434;2024-01-16T20:30:20;17.90;;;10.18;;
80508;SDS011;69838;52.602;13.434;2024-01-16T20:31:06;18.40;;;10.57;;
80508;SDS011;69838;52.602;13.434;2024-01-16T20:31:52;16.52;;;9.27;;
80508;SDS011;69838;52.602;13.434;2024-01-16T20:32:39;15.52;;;9.02;;
80508;SDS011;69838;52.602;13.434;2024-01-16T20:33:25;15.90;;;10.02;;
80508;SDS011;69838;52.602;13.434;2024-01-16T20:34:11;19.38;;;9.60;;
80508;SDS011;69838;52.602;13.434;2024-01-16T20:34:57;15.20;;;10.05;;
80508;SDS011;69838;52.602;13.434;2024-01-16T20:35:42;17.17;;;9.45;;
80508;SDS011;69838;52.602;13.434;2024-01-16T20:36:29;15.70;;;9.27;;
80508;SDS011;69838;52.602;13.434;2024-01-16T20:37:14;15.88;;;8.27;;
80508;SDS011;69838;52.602;13.434;2024-01-16T20:38:00;16.38;;;10.20;;
80508;SDS011;69838;52.602;13.434;2024-01-16T20:38:47;12.27;;;8.57;;
80508;SDS011;69838;52.602;13.434;2024-01-16T20:39:33;15.55;;;8.88;;
80508;SDS011;69838;52.602;13.434;2024-01-16T20:40:19;16.17;;;8.55;;
80508;SDS011;69838;52.602;13.434;2024-01-16T20:41:06;13.88;;;8.20;;
80508;SDS011;69838;52.602;13.434;2024-01-16T20:41:51;16.15;;;8.57;;
80508;SDS011;69838;52.602;13.434;2024-01-16T20:42:37;15.70;;;8.40;;
80508;SDS011;69838;52.602;13.434;2024-01-16T20:43:24;15.52;;;8.68;;
80508;SDS011;69838;52.602;13.434;2024-01-16T20:44:10;15.20;;;9.05;;